sensor_id;sensor_type;location;lat;lon;timestamp;P1;durP1;ratioP1;P2;durP2;ratioP2
69280;SDS011;56392;51.082;17.080;2023-03-18T00:04:38;23.20;;;10.60;;
69280;SDS011;56392;51.082;17.080;2023-03-18T00:10:03;30.05;;;10.65;;
69280;SDS011;56392;51.082;17.080;2023-03-18T00:15:27;28.57;;;10.57;;
69280;SDS011;56392;51.082;17.080;2023-03-18T00:20:50;24.13;;;9.98;;
69280;SDS011;56392;51.082;17.080;2023-03-18T00:26:15;25.23;;;10.23;;
69280;SDS011;56392;51.082;17.080;2023-03-18T00:31:38;23.37;;;9.00;;
69280;SDS011;56392;51.082;17.080;2023-03-18T00:37:01;21.53;;;8.53;;
69280;SDS011;56392;51.082;17.080;2023-03-18T00:42:26;23.00;;;8.35;;
69280;SDS011;56392;51.082;17.080;2023-03-18T00:47:56;22.60;;;8.48;;
69280;SDS011;56392;51.082;17.080;2023-03-18T00:53:19;21.97;;;8.97;;
69280;SDS011;56392;51.082;17.080;2023-03-18T00:58:45;24.83;;;9.02;;
69280;SDS011;56392;51.082;17.080;2023-03-18T01:04:09;18.58;;;8.02;;
69280;SDS011;56392;51.082;17.080;2023-03-18T01:09:32;20.83;;;8.23;;
69280;SDS011;56392;51.082;17.080;2023-03-18T01:14:56;19.90;;;8.20;;
69280;SDS011;56392;51.082;17.080;2023-03-18T01:20:19;20.08;;;8.43;;
69280;SDS011;56392;51.082;17.080;2023-03-18T01:25:45;22.27;;;8.60;;
69280;SDS011;56392;51.082;17.080;2023-03-18T01:31:09;18.80;;;8.20;;
69280;SDS011;56392;51.082;17.080;2023-03-18T01:36:32;18.25;;;7.38;;
69280;SDS011;56392;51.082;17.080;2023-03-18T01:41:57;19.10;;;8.05;;
69280;SDS011;56392;51.082;17.080;2023-03-18T01:47:21;19.87;;;8.00;;
69280;SDS011;56392;51.082;17.080;2023-03-18T01:52:44;17.80;;;7.45;;
69280;SDS011;56392;51.082;17.080;2023-03-18T01:58:12;21.67;;;8.23;;
69280;SDS011;56392;51.082;17.080;2023-03-18T02:03:39;18.10;;;7.40;;
69280;SDS011;56392;51.082;17.080;2023-03-18T02:09:03;15.27;;;7.00;;
69280;SDS011;56392;51.082;17.080;2023-03-18T02:14:27;18.00;;;7.68;;
69280;SDS011;56392;51.082;17.080;2023-03-18T02:19:55;17.53;;;7.00;;
69280;SDS011;56392;51.082;17.080;2023-03-18T02:25:30;16.30;;;7.00;;
69280;SDS011;56392;51.082;17.080;2023-03-18T02:31:01;17.23;;;7.18;;
69280;SDS011;56392;51.082;17.080;2023-03-18T02:36:28;18.33;;;6.90;;
69280;SDS011;56392;51.082;17.080;2023-03-18T02:41:53;15.53;;;6.23;;
69280;SDS011;56392;51.082;17.080;2023-03-18T02:47:18;13.20;;;5.70;;
69280;SDS011;56392;51.082;17.080;2023-03-18T02:52:43;14.18;;;5.50;;
69280;SDS011;56392;51.082;17.080;2023-03-18T02:58:07;15.13;;;5.50;;
69280;SDS011;56392;51.082;17.080;2023-03-18T03:03:32;17.15;;;5.60;;
69280;SDS011;56392;51.082;17.080;2023-03-18T03:08:55;15.82;;;5.60;;
69280;SDS011;56392;51.082;17.080;2023-03-18T03:14:19;14.57;;;5.60;;
69280;SDS011;56392;51.082;17.080;2023-03-18T03:19:44;14.53;;;5.33;;
69280;SDS011;56392;51.082;17.080;2023-03-18T03:25:07;13.80;;;5.30;;
69280;SDS011;56392;51.082;17.080;2023-03-18T03:30:31;13.63;;;5.35;;
69280;SDS011;56392;51.082;17.080;2023-03-18T03:35:56;14.03;;;4.87;;
69280;SDS011;56392;51.082;17.080;2023-03-18T03:41:19;12.80;;;5.25;;
69280;SDS011;56392;51.082;17.080;2023-03-18T03:46:42;16.05;;;5.53;;
69280;SDS011;56392;51.082;17.080;2023-03-18T03:52:08;14.77;;;5.07;;
69280;SDS011;56392;51.082;17.080;2023-03-18T03:57:32;16.77;;;5.35;;
69280;SDS011;56392;51.082;17.080;2023-03-18T04:02:55;14.05;;;5.43;;
69280;SDS011;56392;51.082;17.080;2023-03-18T04:08:20;14.63;;;5.23;;
69280;SDS011;56392;51.082;17.080;2023-03-18T04:13:43;13.10;;;5.03;;
69280;SDS011;56392;51.082;17.080;2023-03-18T04:19:06;13.75;;;5.40;;
69280;SDS011;56392;51.082;17.080;2023-03-18T04:24:31;14.40;;;5.43;;
69280;SDS011;56392;51.082;17.080;2023-03-18T04:29:55;13.07;;;5.33;;
69280;SDS011;56392;51.082;17.080;2023-03-18T04:35:19;14.82;;;5.82;;
69280;SDS011;56392;51.082;17.080;2023-03-18T04:40:44;14.05;;;5.43;;
69280;SDS011;56392;51.082;17.080;2023-03-18T04:46:08;13.10;;;5.47;;
69280;SDS011;56392;51.082;17.080;2023-03-18T04:51:32;14.23;;;5.40;;
69280;SDS011;56392;51.082;17.080;2023-03-18T04:56:56;12.90;;;4.85;;
69280;SDS011;56392;51.082;17.080;2023-03-18T05:02:19;13.70;;;5.23;;
69280;SDS011;56392;51.082;17.080;2023-03-18T05:07:42;12.57;;;4.83;;
69280;SDS011;56392;51.082;17.080;2023-03-18T05:13:07;14.32;;;4.95;;
69280;SDS011;56392;51.082;17.080;2023-03-18T05:18:31;13.27;;;4.40;;
69280;SDS011;56392;51.082;17.080;2023-03-18T05:23:54;11.67;;;3.80;;
69280;SDS011;56392;51.082;17.080;2023-03-18T05:29:19;11.77;;;4.47;;
69280;SDS011;56392;51.082;17.080;2023-03-18T05:34:42;11.13;;;3.70;;
69280;SDS011;56392;51.082;17.080;2023-03-18T05:40:05;11.87;;;4.47;;
69280;SDS011;56392;51.082;17.080;2023-03-18T05:45:33;12.77;;;4.20;;
69280;SDS011;56392;51.082;17.080;2023-03-18T05:50:56;11.50;;;4.15;;
69280;SDS011;56392;51.082;17.080;2023-03-18T05:56:20;11.50;;;4.07;;
69280;SDS011;56392;51.082;17.080;2023-03-18T06:01:46;12.40;;;4.70;;
69280;SDS011;56392;51.082;17.080;2023-03-18T06:07:09;12.98;;;4.88;;
69280;SDS011;56392;51.082;17.080;2023-03-18T06:12:33;13.50;;;4.43;;
69280;SDS011;56392;51.082;17.080;2023-03-18T06:17:58;9.70;;;4.07;;
69280;SDS011;56392;51.082;17.080;2023-03-18T06:23:21;12.70;;;4.35;;
69280;SDS011;56392;51.082;17.080;2023-03-18T06:28:45;11.65;;;4.10;;
69280;SDS011;56392;51.082;17.080;2023-03-18T06:34:09;12.27;;;3.77;;
69280;SDS011;56392;51.082;17.080;2023-03-18T06:39:33;10.35;;;4.25;;
69280;SDS011;56392;51.082;17.080;2023-03-18T06:44:56;11.13;;;3.88;;
69280;SDS011;56392;51.082;17.080;2023-03-18T06:50:21;10.87;;;3.80;;
69280;SDS011;56392;51.082;17.080;2023-03-18T06:55:44;10.93;;;3.83;;
69280;SDS011;56392;51.082;17.080;2023-03-18T07:01:08;10.55;;;4.32;;
69280;SDS011;56392;51.082;17.080;2023-03-18T07:06:34;13.63;;;4.15;;
69280;SDS011;56392;51.082;17.080;2023-03-18T07:11:57;10.47;;;3.50;;
69280;SDS011;56392;51.082;17.080;2023-03-18T07:17:22;10.73;;;3.75;;
69280;SDS011;56392;51.082;17.080;2023-03-18T07:22:46;10.95;;;4.10;;
69280;SDS011;56392;51.082;17.080;2023-03-18T07:28:09;11.83;;;4.40;;
69280;SDS011;56392;51.082;17.080;2023-03-18T07:33:32;11.85;;;3.80;;
69280;SDS011;56392;51.082;17.080;2023-03-18T07:38:57;10.30;;;3.63;;
69280;SDS011;56392;51.082;17.080;2023-03-18T07:44:20;12.13;;;3.87;;
69280;SDS011;56392;51.082;17.080;2023-03-18T07:49:43;11.50;;;4.00;;
69280;SDS011;56392;51.082;17.080;2023-03-18T07:55:08;12.02;;;4.15;;
69280;SDS011;56392;51.082;17.080;2023-03-18T08:00:32;11.77;;;4.40;;
69280;SDS011;56392;51.082;17.080;2023-03-18T08:05:56;12.30;;;4.83;;
69280;SDS011;56392;51.082;17.080;2023-03-18T08:11:20;17.02;;;4.30;;
69280;SDS011;56392;51.082;17.080;2023-03-18T08:16:43;10.18;;;4.03;;
69280;SDS011;56392;51.082;17.080;2023-03-18T08:22:06;9.97;;;3.90;;
69280;SDS011;56392;51.082;17.080;2023-03-18T08:27:31;12.48;;;4.15;;
69280;SDS011;56392;51.082;17.080;2023-03-18T08:32:55;12.75;;;3.60;;
69280;SDS011;56392;51.082;17.080;2023-03-18T08:38:18;10.60;;;3.67;;
69280;SDS011;56392;51.082;17.080;2023-03-18T08:43:42;9.00;;;3.13;;
69280;SDS011;56392;51.082;17.080;2023-03-18T08:49:07;9.63;;;3.70;;
69280;SDS011;56392;51.082;17.080;2023-03-18T08:54:32;10.02;;;3.20;;
69280;SDS011;56392;51.082;17.080;2023-03-18T08:59:57;10.40;;;3.50;;
69280;SDS011;56392;51.082;17.080;2023-03-18T09:05:20;9.35;;;3.47;;
69280;SDS011;56392;51.082;17.080;2023-03-18T09:10:44;11.55;;;3.72;;
69280;SDS011;56392;51.082;17.080;2023-03-18T09:16:08;11.67;;;3.33;;
69280;SDS011;56392;51.082;17.080;2023-03-18T09:21:32;10.63;;;2.92;;
69280;SDS011;56392;51.082;17.080;2023-03-18T09:26:56;9.68;;;3.13;;
69280;SDS011;56392;51.082;17.080;2023-03-18T09:32:21;9.70;;;3.20;;
69280;SDS011;56392;51.082;17.080;2023-03-18T09:37:44;8.27;;;2.73;;
69280;SDS011;56392;51.082;17.080;2023-03-18T09:43:18;8.27;;;2.85;;
69280;SDS011;56392;51.082;17.080;2023-03-18T09:48:57;12.00;;;3.30;;
69280;SDS011;56392;51.082;17.080;2023-03-18T09:54:32;10.47;;;3.53;;
69280;SDS011;56392;51.082;17.080;2023-03-18T10:00:01;8.40;;;3.20;;
69280;SDS011;56392;51.082;17.080;2023-03-18T10:05:31;9.80;;;3.42;;
69280;SDS011;56392;51.082;17.080;2023-03-18T10:10:56;10.27;;;3.10;;
69280;SDS011;56392;51.082;17.080;2023-03-18T10:16:26;8.13;;;3.05;;
69280;SDS011;56392;51.082;17.080;2023-03-18T10:21:56;12.95;;;3.85;;
69280;SDS011;56392;51.082;17.080;2023-03-18T10:27:33;8.93;;;3.23;;
69280;SDS011;56392;51.082;17.080;2023-03-18T10:33:04;10.20;;;3.67;;
69280;SDS011;56392;51.082;17.080;2023-03-18T10:38:35;12.18;;;4.30;;
69280;SDS011;56392;51.082;17.080;2023-03-18T10:44:01;13.88;;;5.57;;
69280;SDS011;56392;51.082;17.080;2023-03-18T10:49:29;10.40;;;3.60;;
69280;SDS011;56392;51.082;17.080;2023-03-18T10:54:56;8.48;;;3.40;;
69280;SDS011;56392;51.082;17.080;2023-03-18T11:00:30;9.63;;;3.70;;
69280;SDS011;56392;51.082;17.080;2023-03-18T11:05:55;8.93;;;3.70;;
69280;SDS011;56392;51.082;17.080;2023-03-18T11:11:24;8.77;;;3.50;;
69280;SDS011;56392;51.082;17.080;2023-03-18T11:16:55;11.43;;;3.83;;
69280;SDS011;56392;51.082;17.080;2023-03-18T11:22:20;10.37;;;4.10;;
69280;SDS011;56392;51.082;17.080;2023-03-18T11:27:47;11.87;;;3.90;;
69280;SDS011;56392;51.082;17.080;2023-03-18T11:33:13;11.52;;;4.20;;
69280;SDS011;56392;51.082;17.080;2023-03-18T11:38:37;8.98;;;3.90;;
69280;SDS011;56392;51.082;17.080;2023-03-18T11:44:03;10.47;;;4.00;;
69280;SDS011;56392;51.082;17.080;2023-03-18T11:49:28;9.55;;;4.03;;
69280;SDS011;56392;51.082;17.080;2023-03-18T12:00:42;9.83;;;4.40;;
69280;SDS011;56392;51.082;17.080;2023-03-18T12:06:15;10.82;;;4.28;;
69280;SDS011;56392;51.082;17.080;2023-03-18T12:11:45;10.18;;;4.20;;
69280;SDS011;56392;51.082;17.080;2023-03-18T12:17:20;9.97;;;4.20;;
69280;SDS011;56392;51.082;17.080;2023-03-18T12:22:54;10.33;;;4.53;;
69280;SDS011;56392;51.082;17.080;2023-03-18T12:28:31;14.90;;;4.82;;
69280;SDS011;56392;51.082;17.080;2023-03-18T12:34:09;11.32;;;4.88;;
69280;SDS011;56392;51.082;17.080;2023-03-18T12:45:34;12.15;;;4.70;;
69280;SDS011;56392;51.082;17.080;2023-03-18T12:51:02;12.25;;;5.05;;
69280;SDS011;56392;51.082;17.080;2023-03-18T12:56:30;11.27;;;5.07;;
69280;SDS011;56392;51.082;17.080;2023-03-18T13:02:13;12.60;;;4.95;;
69280;SDS011;56392;51.082;17.080;2023-03-18T13:07:45;12.45;;;4.88;;
69280;SDS011;56392;51.082;17.080;2023-03-18T13:13:11;13.60;;;5.00;;
69280;SDS011;56392;51.082;17.080;2023-03-18T13:18:37;13.17;;;5.03;;
69280;SDS011;56392;51.082;17.080;2023-03-18T13:29:59;12.68;;;5.07;;
69280;SDS011;56392;51.082;17.080;2023-03-18T13:35:34;11.43;;;5.13;;
69280;SDS011;56392;51.082;17.080;2023-03-18T13:41:27;11.73;;;5.13;;
69280;SDS011;56392;51.082;17.080;2023-03-18T13:47:14;10.68;;;5.03;;
69280;SDS011;56392;51.082;17.080;2023-03-18T13:52:39;12.98;;;5.18;;
69280;SDS011;56392;51.082;17.080;2023-03-18T13:58:14;12.80;;;5.80;;
69280;SDS011;56392;51.082;17.080;2023-03-18T14:09:31;13.98;;;5.53;;
69280;SDS011;56392;51.082;17.080;2023-03-18T14:14:59;13.20;;;5.90;;
69280;SDS011;56392;51.082;17.080;2023-03-18T14:20:37;13.60;;;5.60;;
69280;SDS011;56392;51.082;17.080;2023-03-18T14:26:03;12.55;;;5.95;;
69280;SDS011;56392;51.082;17.080;2023-03-18T14:31:32;14.00;;;6.15;;
69280;SDS011;56392;51.082;17.080;2023-03-18T14:43:15;13.43;;;5.82;;
69280;SDS011;56392;51.082;17.080;2023-03-18T14:48:44;12.30;;;5.78;;
69280;SDS011;56392;51.082;17.080;2023-03-18T14:54:16;12.50;;;5.47;;
69280;SDS011;56392;51.082;17.080;2023-03-18T14:59:44;14.70;;;5.90;;
69280;SDS011;56392;51.082;17.080;2023-03-18T15:05:07;13.43;;;6.10;;
69280;SDS011;56392;51.082;17.080;2023-03-18T15:10:36;14.35;;;6.45;;
69280;SDS011;56392;51.082;17.080;2023-03-18T15:16:02;15.40;;;5.67;;
69280;SDS011;56392;51.082;17.080;2023-03-18T15:21:27;13.85;;;6.47;;
69280;SDS011;56392;51.082;17.080;2023-03-18T15:26:57;13.85;;;6.18;;
69280;SDS011;56392;51.082;17.080;2023-03-18T15:32:22;14.80;;;5.83;;
69280;SDS011;56392;51.082;17.080;2023-03-18T15:37:49;12.68;;;6.07;;
69280;SDS011;56392;51.082;17.080;2023-03-18T15:43:28;13.40;;;6.18;;
69280;SDS011;56392;51.082;17.080;2023-03-18T15:48:56;15.83;;;6.77;;
69280;SDS011;56392;51.082;17.080;2023-03-18T15:54:22;14.07;;;6.47;;
69280;SDS011;56392;51.082;17.080;2023-03-18T15:59:50;13.52;;;6.75;;
69280;SDS011;56392;51.082;17.080;2023-03-18T16:05:13;13.60;;;6.72;;
69280;SDS011;56392;51.082;17.080;2023-03-18T16:10:39;17.13;;;7.37;;
69280;SDS011;56392;51.082;17.080;2023-03-18T16:16:05;18.85;;;8.75;;
69280;SDS011;56392;51.082;17.080;2023-03-18T16:21:31;18.77;;;8.85;;
69280;SDS011;56392;51.082;17.080;2023-03-18T16:26:54;21.40;;;9.07;;
69280;SDS011;56392;51.082;17.080;2023-03-18T16:32:19;19.88;;;9.20;;
69280;SDS011;56392;51.082;17.080;2023-03-18T16:37:43;20.77;;;9.52;;
69280;SDS011;56392;51.082;17.080;2023-03-18T16:43:17;20.57;;;9.37;;
69280;SDS011;56392;51.082;17.080;2023-03-18T16:48:43;17.00;;;8.43;;
69280;SDS011;56392;51.082;17.080;2023-03-18T16:54:09;17.73;;;8.43;;
69280;SDS011;56392;51.082;17.080;2023-03-18T16:59:39;17.35;;;8.70;;
69280;SDS011;56392;51.082;17.080;2023-03-18T17:05:08;20.80;;;9.23;;
69280;SDS011;56392;51.082;17.080;2023-03-18T17:10:35;21.83;;;10.25;;
69280;SDS011;56392;51.082;17.080;2023-03-18T17:15:59;23.45;;;9.90;;
69280;SDS011;56392;51.082;17.080;2023-03-18T17:21:24;23.07;;;10.80;;
69280;SDS011;56392;51.082;17.080;2023-03-18T17:26:49;25.75;;;10.93;;
69280;SDS011;56392;51.082;17.080;2023-03-18T17:32:13;27.38;;;11.93;;
69280;SDS011;56392;51.082;17.080;2023-03-18T17:37:41;24.93;;;10.87;;
69280;SDS011;56392;51.082;17.080;2023-03-18T17:43:04;26.33;;;10.67;;
69280;SDS011;56392;51.082;17.080;2023-03-18T17:48:28;23.15;;;10.10;;
69280;SDS011;56392;51.082;17.080;2023-03-18T17:53:54;23.75;;;10.02;;
69280;SDS011;56392;51.082;17.080;2023-03-18T17:59:19;24.63;;;10.17;;
69280;SDS011;56392;51.082;17.080;2023-03-18T18:04:43;24.42;;;10.27;;
69280;SDS011;56392;51.082;17.080;2023-03-18T18:10:09;24.40;;;10.35;;
69280;SDS011;56392;51.082;17.080;2023-03-18T18:15:33;22.30;;;10.40;;
69280;SDS011;56392;51.082;17.080;2023-03-18T18:20:56;22.00;;;9.77;;
69280;SDS011;56392;51.082;17.080;2023-03-18T18:26:21;24.63;;;10.65;;
69280;SDS011;56392;51.082;17.080;2023-03-18T18:31:45;23.93;;;10.43;;
69280;SDS011;56392;51.082;17.080;2023-03-18T18:37:08;24.47;;;10.57;;
69280;SDS011;56392;51.082;17.080;2023-03-18T18:42:33;26.98;;;12.60;;
69280;SDS011;56392;51.082;17.080;2023-03-18T18:47:56;31.65;;;13.30;;
69280;SDS011;56392;51.082;17.080;2023-03-18T18:53:21;32.77;;;14.23;;
69280;SDS011;56392;51.082;17.080;2023-03-18T18:58:47;35.95;;;15.73;;
69280;SDS011;56392;51.082;17.080;2023-03-18T19:04:12;34.85;;;13.93;;
69280;SDS011;56392;51.082;17.080;2023-03-18T19:09:36;31.97;;;14.40;;
69280;SDS011;56392;51.082;17.080;2023-03-18T19:15:00;34.33;;;14.52;;
69280;SDS011;56392;51.082;17.080;2023-03-18T19:20:25;39.40;;;16.45;;
69280;SDS011;56392;51.082;17.080;2023-03-18T19:25:50;36.13;;;16.87;;
69280;SDS011;56392;51.082;17.080;2023-03-18T19:31:16;42.50;;;18.83;;
69280;SDS011;56392;51.082;17.080;2023-03-18T19:36:40;37.10;;;17.35;;
69280;SDS011;56392;51.082;17.080;2023-03-18T19:42:03;39.60;;;17.40;;
69280;SDS011;56392;51.082;17.080;2023-03-18T19:47:28;37.77;;;16.73;;
69280;SDS011;56392;51.082;17.080;2023-03-18T19:52:52;41.22;;;17.30;;
69280;SDS011;56392;51.082;17.080;2023-03-18T19:58:18;37.85;;;17.00;;
69280;SDS011;56392;51.082;17.080;2023-03-18T20:03:46;39.73;;;17.10;;
69280;SDS011;56392;51.082;17.080;2023-03-18T20:09:10;39.45;;;15.90;;
69280;SDS011;56392;51.082;17.080;2023-03-18T20:14:33;38.90;;;16.45;;
69280;SDS011;56392;51.082;17.080;2023-03-18T20:19:59;40.73;;;16.73;;
69280;SDS011;56392;51.082;17.080;2023-03-18T20:25:23;62.80;;;23.13;;
69280;SDS011;56392;51.082;17.080;2023-03-18T20:30:50;66.97;;;22.40;;
69280;SDS011;56392;51.082;17.080;2023-03-18T20:36:18;35.83;;;13.98;;
69280;SDS011;56392;51.082;17.080;2023-03-18T20:41:41;29.50;;;12.77;;
69280;SDS011;56392;51.082;17.080;2023-03-18T20:47:04;32.60;;;13.45;;
69280;SDS011;56392;51.082;17.080;2023-03-18T20:52:29;31.05;;;12.50;;
69280;SDS011;56392;51.082;17.080;2023-03-18T20:57:52;29.80;;;11.73;;
69280;SDS011;56392;51.082;17.080;2023-03-18T21:03:19;28.17;;;12.48;;
69280;SDS011;56392;51.082;17.080;2023-03-18T21:08:48;27.15;;;11.45;;
69280;SDS011;56392;51.082;17.080;2023-03-18T21:14:12;30.20;;;12.47;;
69280;SDS011;56392;51.082;17.080;2023-03-18T21:19:36;29.60;;;12.50;;
69280;SDS011;56392;51.082;17.080;2023-03-18T21:25:00;29.15;;;13.45;;
69280;SDS011;56392;51.082;17.080;2023-03-18T21:30:24;28.48;;;12.82;;
69280;SDS011;56392;51.082;17.080;2023-03-18T21:35:48;29.13;;;12.23;;
69280;SDS011;56392;51.082;17.080;2023-03-18T21:41:20;28.65;;;12.25;;
69280;SDS011;56392;51.082;17.080;2023-03-18T21:46:45;27.17;;;12.57;;
69280;SDS011;56392;51.082;17.080;2023-03-18T21:52:13;26.30;;;11.50;;
69280;SDS011;56392;51.082;17.080;2023-03-18T21:57:41;25.80;;;11.98;;
69280;SDS011;56392;51.082;17.080;2023-03-18T22:03:04;31.98;;;13.90;;
69280;SDS011;56392;51.082;17.080;2023-03-18T22:08:34;28.70;;;12.33;;
69280;SDS011;56392;51.082;17.080;2023-03-18T22:13:59;27.47;;;11.33;;
69280;SDS011;56392;51.082;17.080;2023-03-18T22:19:22;26.35;;;11.10;;
69280;SDS011;56392;51.082;17.080;2023-03-18T22:24:45;25.42;;;11.07;;
69280;SDS011;56392;51.082;17.080;2023-03-18T22:30:11;27.40;;;11.57;;
69280;SDS011;56392;51.082;17.080;2023-03-18T22:35:35;38.58;;;15.50;;
69280;SDS011;56392;51.082;17.080;2023-03-18T22:40:58;34.05;;;15.13;;
69280;SDS011;56392;51.082;17.080;2023-03-18T22:46:22;37.93;;;16.47;;
69280;SDS011;56392;51.082;17.080;2023-03-18T22:51:46;35.35;;;15.38;;
69280;SDS011;56392;51.082;17.080;2023-03-18T22:57:12;37.88;;;14.30;;
69280;SDS011;56392;51.082;17.080;2023-03-18T23:02:39;38.00;;;15.73;;
69280;SDS011;56392;51.082;17.080;2023-03-18T23:08:03;42.40;;;14.93;;
69280;SDS011;56392;51.082;17.080;2023-03-18T23:13:26;43.53;;;15.13;;
69280;SDS011;56392;51.082;17.080;2023-03-18T23:18:53;49.42;;;17.92;;
69280;SDS011;56392;51.082;17.080;2023-03-18T23:24:16;42.60;;;16.30;;
69280;SDS011;56392;51.082;17.080;2023-03-18T23:29:39;38.42;;;14.73;;
69280;SDS011;56392;51.082;17.080;2023-03-18T23:35:05;29.73;;;12.27;;
69280;SDS011;56392;51.082;17.080;2023-03-18T23:40:29;34.47;;;12.67;;
69280;SDS011;56392;51.082;17.080;2023-03-18T23:45:53;31.40;;;13.63;;
69280;SDS011;56392;51.082;17.080;2023-03-18T23:51:17;31.80;;;13.52;;
69280;SDS011;56392;51.082;17.080;2023-03-18T23:56:40;35.10;;;15.10;;
